sensor_id;sensor_type;location;lat;lon;timestamp;temperature;humidity
33328;DHT22;19692;52.998;9.116;2024-03-02T00:00:51;7.00;99.90
33328;DHT22;19692;52.998;9.116;2024-03-02T00:03:18;7.00;99.90
33328;DHT22;19692;52.998;9.116;2024-03-02T00:05:48;7.00;99.90
33328;DHT22;19692;52.998;9.116;2024-03-02T00:08:24;7.00;99.90
33328;DHT22;19692;52.998;9.116;2024-03-02T00:10:51;7.00;99.90
33328;DHT22;19692;52.998;9.116;2024-03-02T00:13:20;7.00;99.90
33328;DHT22;19692;52.998;9.116;2024-03-02T00:15:55;7.00;99.90
33328;DHT22;19692;52.998;9.116;2024-03-02T00:18:32;7.00;99.90
33328;DHT22;19692;52.998;9.116;2024-03-02T00:20:59;7.00;99.90
33328;DHT22;19692;52.998;9.116;2024-03-02T00:23:33;7.00;99.90
33328;DHT22;19692;52.998;9.116;2024-03-02T00:26:00;7.00;99.90
33328;DHT22;19692;52.998;9.116;2024-03-02T00:28:30;6.90;99.90
33328;DHT22;19692;52.998;9.116;2024-03-02T00:31:03;6.90;99.90
33328;DHT22;19692;52.998;9.116;2024-03-02T00:33:35;6.90;99.90
33328;DHT22;19692;52.998;9.116;2024-03-02T00:36:24;6.90;99.90
33328;DHT22;19692;52.998;9.116;2024-03-02T00:38:52;6.90;99.90
33328;DHT22;19692;52.998;9.116;2024-03-02T00:41:25;6.90;99.90
33328;DHT22;19692;52.998;9.116;2024-03-02T00:44:02;6.90;99.90
33328;DHT22;19692;52.998;9.116;2024-03-02T00:46:41;6.90;99.90
33328;DHT22;19692;52.998;9.116;2024-03-02T00:51:48;6.90;99.90
33328;DHT22;19692;52.998;9.116;2024-03-02T00:54:19;6.80;99.90
33328;DHT22;19692;52.998;9.116;2024-03-02T00:56:49;6.80;99.90
33328;DHT22;19692;52.998;9.116;2024-03-02T00:59:16;6.70;99.90
33328;DHT22;19692;52.998;9.116;2024-03-02T01:01:42;6.70;99.90
33328;DHT22;19692;52.998;9.116;2024-03-02T01:04:08;6.70;99.90
33328;DHT22;19692;52.998;9.116;2024-03-02T01:06:37;6.70;99.90
33328;DHT22;19692;52.998;9.116;2024-03-02T01:09:03;6.60;99.90
33328;DHT22;19692;52.998;9.116;2024-03-02T01:11:29;6.70;99.90
33328;DHT22;19692;52.998;9.116;2024-03-02T01:13:55;6.60;99.90
33328;DHT22;19692;52.998;9.116;2024-03-02T01:16:21;6.60;99.90
33328;DHT22;19692;52.998;9.116;2024-03-02T01:18:47;6.60;99.90
33328;DHT22;19692;52.998;9.116;2024-03-02T01:21:13;6.60;99.90
33328;DHT22;19692;52.998;9.116;2024-03-02T01:23:39;6.60;99.90
33328;DHT22;19692;52.998;9.116;2024-03-02T01:26:04;6.50;99.90
33328;DHT22;19692;52.998;9.116;2024-03-02T01:28:31;6.50;99.90
33328;DHT22;19692;52.998;9.116;2024-03-02T01:30:56;6.40;99.90
33328;DHT22;19692;52.998;9.116;2024-03-02T01:33:22;6.40;99.90
33328;DHT22;19692;52.998;9.116;2024-03-02T01:35:48;6.40;99.90
33328;DHT22;19692;52.998;9.116;2024-03-02T01:38:14;6.40;99.90
33328;DHT22;19692;52.998;9.116;2024-03-02T01:40:40;6.40;99.90
33328;DHT22;19692;52.998;9.116;2024-03-02T01:43:06;6.40;99.90
33328;DHT22;19692;52.998;9.116;2024-03-02T01:45:32;6.50;99.90
33328;DHT22;19692;52.998;9.116;2024-03-02T01:47:58;6.50;99.90
33328;DHT22;19692;52.998;9.116;2024-03-02T01:50:29;6.50;99.90
33328;DHT22;19692;52.998;9.116;2024-03-02T01:52:58;6.60;99.90
33328;DHT22;19692;52.998;9.116;2024-03-02T01:55:24;6.60;99.90
33328;DHT22;19692;52.998;9.116;2024-03-02T01:57:51;6.60;99.90
33328;DHT22;19692;52.998;9.116;2024-03-02T02:00:18;6.70;99.90
33328;DHT22;19692;52.998;9.116;2024-03-02T02:02:45;6.70;99.90
33328;DHT22;19692;52.998;9.116;2024-03-02T02:05:12;6.80;99.90
33328;DHT22;19692;52.998;9.116;2024-03-02T02:07:38;6.80;99.90
33328;DHT22;19692;52.998;9.116;2024-03-02T02:10:04;6.80;99.90
33328;DHT22;19692;52.998;9.116;2024-03-02T02:12:30;6.90;99.90
33328;DHT22;19692;52.998;9.116;2024-03-02T02:14:56;6.90;99.90
33328;DHT22;19692;52.998;9.116;2024-03-02T02:17:21;6.90;99.90
33328;DHT22;19692;52.998;9.116;2024-03-02T02:19:47;6.90;99.90
33328;DHT22;19692;52.998;9.116;2024-03-02T02:22:13;6.90;99.90
33328;DHT22;19692;52.998;9.116;2024-03-02T02:24:40;6.90;99.90
33328;DHT22;19692;52.998;9.116;2024-03-02T02:27:09;6.90;99.90
33328;DHT22;19692;52.998;9.116;2024-03-02T02:29:36;6.80;99.90
33328;DHT22;19692;52.998;9.116;2024-03-02T02:32:02;6.90;99.90
33328;DHT22;19692;52.998;9.116;2024-03-02T02:34:28;6.80;99.90
33328;DHT22;19692;52.998;9.116;2024-03-02T02:36:54;6.80;99.90
33328;DHT22;19692;52.998;9.116;2024-03-02T02:39:21;6.90;99.90
33328;DHT22;19692;52.998;9.116;2024-03-02T02:41:50;6.90;99.90
33328;DHT22;19692;52.998;9.116;2024-03-02T02:44:16;6.80;99.90
33328;DHT22;19692;52.998;9.116;2024-03-02T02:46:42;6.80;99.90
33328;DHT22;19692;52.998;9.116;2024-03-02T02:49:08;6.80;99.90
33328;DHT22;19692;52.998;9.116;2024-03-02T02:51:33;6.80;99.90
33328;DHT22;19692;52.998;9.116;2024-03-02T02:53:59;6.80;99.90
33328;DHT22;19692;52.998;9.116;2024-03-02T02:56:25;6.80;99.90
33328;DHT22;19692;52.998;9.116;2024-03-02T02:58:51;6.80;99.90
33328;DHT22;19692;52.998;9.116;2024-03-02T03:01:17;6.80;99.90
33328;DHT22;19692;52.998;9.116;2024-03-02T03:03:44;6.80;99.90
33328;DHT22;19692;52.998;9.116;2024-03-02T03:06:10;6.70;99.90
33328;DHT22;19692;52.998;9.116;2024-03-02T03:08:36;6.70;99.90
33328;DHT22;19692;52.998;9.116;2024-03-02T03:11:02;6.70;99.90
33328;DHT22;19692;52.998;9.116;2024-03-02T03:13:29;6.60;99.90
33328;DHT22;19692;52.998;9.116;2024-03-02T03:15:54;6.60;99.90
33328;DHT22;19692;52.998;9.116;2024-03-02T03:18:20;6.60;99.90
33328;DHT22;19692;52.998;9.116;2024-03-02T03:20:46;6.60;99.90
33328;DHT22;19692;52.998;9.116;2024-03-02T03:23:12;6.60;99.90
33328;DHT22;19692;52.998;9.116;2024-03-02T03:25:41;6.50;99.90
33328;DHT22;19692;52.998;9.116;2024-03-02T03:28:07;6.50;99.90
33328;DHT22;19692;52.998;9.116;2024-03-02T03:30:38;6.40;99.90
33328;DHT22;19692;52.998;9.116;2024-03-02T03:33:05;6.40;99.90
33328;DHT22;19692;52.998;9.116;2024-03-02T03:35:33;6.40;99.90
33328;DHT22;19692;52.998;9.116;2024-03-02T03:38:00;6.40;99.90
33328;DHT22;19692;52.998;9.116;2024-03-02T03:40:26;6.40;99.90
33328;DHT22;19692;52.998;9.116;2024-03-02T03:42:51;6.40;99.90
33328;DHT22;19692;52.998;9.116;2024-03-02T03:45:17;6.40;99.90
33328;DHT22;19692;52.998;9.116;2024-03-02T03:47:43;6.40;99.90
33328;DHT22;19692;52.998;9.116;2024-03-02T03:50:09;6.40;99.90
33328;DHT22;19692;52.998;9.116;2024-03-02T03:52:35;6.40;99.90
33328;DHT22;19692;52.998;9.116;2024-03-02T03:55:01;6.40;99.90
33328;DHT22;19692;52.998;9.116;2024-03-02T03:57:27;6.40;99.90
33328;DHT22;19692;52.998;9.116;2024-03-02T03:59:53;6.40;99.90
33328;DHT22;19692;52.998;9.116;2024-03-02T04:02:19;6.40;99.90
33328;DHT22;19692;52.998;9.116;2024-03-02T04:04:45;6.40;99.90
33328;DHT22;19692;52.998;9.116;2024-03-02T04:07:11;6.40;99.90
33328;DHT22;19692;52.998;9.116;2024-03-02T04:09:37;6.40;99.90
33328;DHT22;19692;52.998;9.116;2024-03-02T04:12:02;6.40;99.90
33328;DHT22;19692;52.998;9.116;2024-03-02T04:14:28;6.40;99.90
33328;DHT22;19692;52.998;9.116;2024-03-02T04:16:54;6.40;99.90
33328;DHT22;19692;52.998;9.116;2024-03-02T04:19:20;6.40;99.90
33328;DHT22;19692;52.998;9.116;2024-03-02T04:21:46;6.30;99.90
33328;DHT22;19692;52.998;9.116;2024-03-02T04:24:12;6.30;99.90
33328;DHT22;19692;52.998;9.116;2024-03-02T04:26:38;6.40;99.90
33328;DHT22;19692;52.998;9.116;2024-03-02T04:29:03;6.40;99.90
33328;DHT22;19692;52.998;9.116;2024-03-02T04:31:29;6.30;99.90
33328;DHT22;19692;52.998;9.116;2024-03-02T04:33:55;6.40;99.90
33328;DHT22;19692;52.998;9.116;2024-03-02T04:36:21;6.30;99.90
33328;DHT22;19692;52.998;9.116;2024-03-02T04:38:47;6.30;99.90
33328;DHT22;19692;52.998;9.116;2024-03-02T04:41:13;6.30;99.90
33328;DHT22;19692;52.998;9.116;2024-03-02T04:43:39;6.30;99.90
33328;DHT22;19692;52.998;9.116;2024-03-02T04:46:05;6.30;99.90
33328;DHT22;19692;52.998;9.116;2024-03-02T04:48:32;6.30;99.90
33328;DHT22;19692;52.998;9.116;2024-03-02T04:50:58;6.30;99.90
33328;DHT22;19692;52.998;9.116;2024-03-02T04:53:24;6.30;99.90
33328;DHT22;19692;52.998;9.116;2024-03-02T04:55:50;6.20;99.90
33328;DHT22;19692;52.998;9.116;2024-03-02T04:58:34;6.20;99.90
33328;DHT22;19692;52.998;9.116;2024-03-02T05:01:00;6.30;99.90
33328;DHT22;19692;52.998;9.116;2024-03-02T05:03:26;6.40;99.90
33328;DHT22;19692;52.998;9.116;2024-03-02T05:05:52;6.40;99.90
33328;DHT22;19692;52.998;9.116;2024-03-02T05:08:17;6.50;99.90
33328;DHT22;19692;52.998;9.116;2024-03-02T05:10:43;6.40;99.90
33328;DHT22;19692;52.998;9.116;2024-03-02T05:13:09;6.40;99.90
33328;DHT22;19692;52.998;9.116;2024-03-02T05:15:34;6.30;99.90
33328;DHT22;19692;52.998;9.116;2024-03-02T05:18:00;6.20;99.90
33328;DHT22;19692;52.998;9.116;2024-03-02T05:20:28;6.20;99.90
33328;DHT22;19692;52.998;9.116;2024-03-02T05:22:53;6.20;99.90
33328;DHT22;19692;52.998;9.116;2024-03-02T05:25:19;6.10;99.90
33328;DHT22;19692;52.998;9.116;2024-03-02T05:27:45;6.10;99.90
33328;DHT22;19692;52.998;9.116;2024-03-02T05:30:11;6.10;99.90
33328;DHT22;19692;52.998;9.116;2024-03-02T05:32:37;6.00;99.90
33328;DHT22;19692;52.998;9.116;2024-03-02T05:35:03;6.00;99.90
33328;DHT22;19692;52.998;9.116;2024-03-02T05:37:30;5.90;99.90
33328;DHT22;19692;52.998;9.116;2024-03-02T05:39:56;5.90;99.90
33328;DHT22;19692;52.998;9.116;2024-03-02T05:42:22;5.80;99.90
33328;DHT22;19692;52.998;9.116;2024-03-02T05:44:47;5.90;99.90
33328;DHT22;19692;52.998;9.116;2024-03-02T05:47:13;5.90;99.90
33328;DHT22;19692;52.998;9.116;2024-03-02T05:49:39;5.90;99.90
33328;DHT22;19692;52.998;9.116;2024-03-02T05:52:05;5.90;99.90
33328;DHT22;19692;52.998;9.116;2024-03-02T05:54:30;5.90;99.90
33328;DHT22;19692;52.998;9.116;2024-03-02T05:56:56;5.80;99.90
33328;DHT22;19692;52.998;9.116;2024-03-02T05:59:22;5.80;99.90
33328;DHT22;19692;52.998;9.116;2024-03-02T06:01:48;5.80;99.90
33328;DHT22;19692;52.998;9.116;2024-03-02T06:04:16;5.80;99.90
33328;DHT22;19692;52.998;9.116;2024-03-02T06:06:42;5.80;99.90
33328;DHT22;19692;52.998;9.116;2024-03-02T06:09:08;5.80;99.90
33328;DHT22;19692;52.998;9.116;2024-03-02T06:11:39;5.90;99.90
33328;DHT22;19692;52.998;9.116;2024-03-02T06:14:06;5.90;99.90
33328;DHT22;19692;52.998;9.116;2024-03-02T06:16:33;5.80;99.90
33328;DHT22;19692;52.998;9.116;2024-03-02T06:19:00;5.90;99.90
33328;DHT22;19692;52.998;9.116;2024-03-02T06:21:27;5.90;99.90
33328;DHT22;19692;52.998;9.116;2024-03-02T06:23:53;5.80;99.90
33328;DHT22;19692;52.998;9.116;2024-03-02T06:26:19;5.90;99.90
33328;DHT22;19692;52.998;9.116;2024-03-02T06:28:45;5.90;99.90
33328;DHT22;19692;52.998;9.116;2024-03-02T06:31:11;5.90;99.90
33328;DHT22;19692;52.998;9.116;2024-03-02T06:33:37;5.90;99.90
33328;DHT22;19692;52.998;9.116;2024-03-02T06:36:03;5.90;99.90
33328;DHT22;19692;52.998;9.116;2024-03-02T06:38:29;5.90;99.90
33328;DHT22;19692;52.998;9.116;2024-03-02T06:40:57;5.90;99.90
33328;DHT22;19692;52.998;9.116;2024-03-02T06:43:23;5.90;99.90
33328;DHT22;19692;52.998;9.116;2024-03-02T06:45:50;6.00;99.90
33328;DHT22;19692;52.998;9.116;2024-03-02T06:48:17;6.00;99.90
33328;DHT22;19692;52.998;9.116;2024-03-02T06:50:46;6.00;99.90
33328;DHT22;19692;52.998;9.116;2024-03-02T06:53:13;6.00;99.90
33328;DHT22;19692;52.998;9.116;2024-03-02T06:55:39;6.10;99.90
33328;DHT22;19692;52.998;9.116;2024-03-02T06:58:05;6.10;99.90
33328;DHT22;19692;52.998;9.116;2024-03-02T07:00:31;6.10;99.90
33328;DHT22;19692;52.998;9.116;2024-03-02T07:02:57;6.10;99.90
33328;DHT22;19692;52.998;9.116;2024-03-02T07:05:23;6.20;99.90
33328;DHT22;19692;52.998;9.116;2024-03-02T07:07:49;6.20;99.90
33328;DHT22;19692;52.998;9.116;2024-03-02T07:10:15;6.30;99.90
33328;DHT22;19692;52.998;9.116;2024-03-02T07:12:41;6.30;99.90
33328;DHT22;19692;52.998;9.116;2024-03-02T07:15:07;6.40;99.90
33328;DHT22;19692;52.998;9.116;2024-03-02T07:17:33;6.50;99.90
33328;DHT22;19692;52.998;9.116;2024-03-02T07:19:58;6.60;99.90
33328;DHT22;19692;52.998;9.116;2024-03-02T07:22:24;6.60;99.90
33328;DHT22;19692;52.998;9.116;2024-03-02T07:24:50;6.80;99.90
33328;DHT22;19692;52.998;9.116;2024-03-02T07:27:17;6.90;99.90
33328;DHT22;19692;52.998;9.116;2024-03-02T07:29:43;6.90;99.90
33328;DHT22;19692;52.998;9.116;2024-03-02T07:32:10;7.00;99.90
33328;DHT22;19692;52.998;9.116;2024-03-02T07:34:36;7.10;99.90
33328;DHT22;19692;52.998;9.116;2024-03-02T07:37:05;7.10;99.90
33328;DHT22;19692;52.998;9.116;2024-03-02T07:39:31;7.20;99.90
33328;DHT22;19692;52.998;9.116;2024-03-02T07:41:57;7.30;99.90
33328;DHT22;19692;52.998;9.116;2024-03-02T07:44:23;7.40;99.90
33328;DHT22;19692;52.998;9.116;2024-03-02T07:46:49;7.40;99.90
33328;DHT22;19692;52.998;9.116;2024-03-02T07:49:16;7.50;99.90
33328;DHT22;19692;52.998;9.116;2024-03-02T07:51:42;7.50;99.90
33328;DHT22;19692;52.998;9.116;2024-03-02T07:54:08;7.60;99.90
33328;DHT22;19692;52.998;9.116;2024-03-02T07:56:34;7.70;99.90
33328;DHT22;19692;52.998;9.116;2024-03-02T07:59:01;7.70;99.90
33328;DHT22;19692;52.998;9.116;2024-03-02T08:01:31;7.80;99.90
33328;DHT22;19692;52.998;9.116;2024-03-02T08:03:58;7.90;99.90
33328;DHT22;19692;52.998;9.116;2024-03-02T08:06:26;7.90;99.90
33328;DHT22;19692;52.998;9.116;2024-03-02T08:08:59;8.00;99.90
33328;DHT22;19692;52.998;9.116;2024-03-02T08:11:26;8.00;99.90
33328;DHT22;19692;52.998;9.116;2024-03-02T08:13:56;8.00;99.90
33328;DHT22;19692;52.998;9.116;2024-03-02T08:16:25;8.10;99.90
33328;DHT22;19692;52.998;9.116;2024-03-02T08:18:52;8.30;99.90
33328;DHT22;19692;52.998;9.116;2024-03-02T08:21:17;8.30;99.90
33328;DHT22;19692;52.998;9.116;2024-03-02T08:23:43;8.30;99.90
33328;DHT22;19692;52.998;9.116;2024-03-02T08:26:10;8.40;99.90
33328;DHT22;19692;52.998;9.116;2024-03-02T08:28:36;8.40;99.90
33328;DHT22;19692;52.998;9.116;2024-03-02T08:31:08;8.40;99.90
33328;DHT22;19692;52.998;9.116;2024-03-02T08:33:34;8.40;99.90
33328;DHT22;19692;52.998;9.116;2024-03-02T08:36:00;8.40;99.90
33328;DHT22;19692;52.998;9.116;2024-03-02T08:38:26;8.40;99.90
33328;DHT22;19692;52.998;9.116;2024-03-02T08:40:52;8.40;99.90
33328;DHT22;19692;52.998;9.116;2024-03-02T08:43:19;8.50;99.90
33328;DHT22;19692;52.998;9.116;2024-03-02T08:45:45;8.50;99.90
33328;DHT22;19692;52.998;9.116;2024-03-02T08:48:12;8.50;99.90
33328;DHT22;19692;52.998;9.116;2024-03-02T08:50:38;8.50;99.90
33328;DHT22;19692;52.998;9.116;2024-03-02T08:53:04;8.50;99.90
33328;DHT22;19692;52.998;9.116;2024-03-02T08:55:30;8.60;99.90
33328;DHT22;19692;52.998;9.116;2024-03-02T08:57:56;8.60;99.90
33328;DHT22;19692;52.998;9.116;2024-03-02T09:00:22;8.60;99.90
33328;DHT22;19692;52.998;9.116;2024-03-02T09:02:48;8.60;99.90
33328;DHT22;19692;52.998;9.116;2024-03-02T09:05:14;8.70;99.90
33328;DHT22;19692;52.998;9.116;2024-03-02T09:07:40;8.70;99.90
33328;DHT22;19692;52.998;9.116;2024-03-02T09:10:07;8.70;99.90
33328;DHT22;19692;52.998;9.116;2024-03-02T09:12:33;8.80;99.90
33328;DHT22;19692;52.998;9.116;2024-03-02T09:15:03;8.90;99.90
33328;DHT22;19692;52.998;9.116;2024-03-02T09:17:29;8.90;99.90
33328;DHT22;19692;52.998;9.116;2024-03-02T09:19:55;8.90;99.90
33328;DHT22;19692;52.998;9.116;2024-03-02T09:22:22;8.90;99.90
33328;DHT22;19692;52.998;9.116;2024-03-02T09:24:48;9.00;99.90
33328;DHT22;19692;52.998;9.116;2024-03-02T09:27:14;9.10;99.90
33328;DHT22;19692;52.998;9.116;2024-03-02T09:29:40;9.10;99.90
33328;DHT22;19692;52.998;9.116;2024-03-02T09:32:06;9.20;99.90
33328;DHT22;19692;52.998;9.116;2024-03-02T09:34:33;9.20;99.90
33328;DHT22;19692;52.998;9.116;2024-03-02T09:36:59;9.20;99.90
33328;DHT22;19692;52.998;9.116;2024-03-02T09:39:25;9.40;99.90
33328;DHT22;19692;52.998;9.116;2024-03-02T09:41:51;9.60;99.90
33328;DHT22;19692;52.998;9.116;2024-03-02T09:44:17;9.70;99.90
33328;DHT22;19692;52.998;9.116;2024-03-02T09:46:43;9.90;99.90
33328;DHT22;19692;52.998;9.116;2024-03-02T09:49:10;10.20;99.90
33328;DHT22;19692;52.998;9.116;2024-03-02T09:51:37;10.30;99.90
33328;DHT22;19692;52.998;9.116;2024-03-02T09:54:03;10.50;99.90
33328;DHT22;19692;52.998;9.116;2024-03-02T09:56:29;10.70;99.90
33328;DHT22;19692;52.998;9.116;2024-03-02T09:58:55;10.90;99.90
33328;DHT22;19692;52.998;9.116;2024-03-02T10:01:21;11.10;99.90
33328;DHT22;19692;52.998;9.116;2024-03-02T10:03:47;11.30;99.90
33328;DHT22;19692;52.998;9.116;2024-03-02T10:06:21;11.50;99.90
33328;DHT22;19692;52.998;9.116;2024-03-02T10:08:48;11.70;99.90
33328;DHT22;19692;52.998;9.116;2024-03-02T10:11:28;11.90;99.90
33328;DHT22;19692;52.998;9.116;2024-03-02T10:14:08;12.20;99.90
33328;DHT22;19692;52.998;9.116;2024-03-02T10:16:37;12.30;99.90
33328;DHT22;19692;52.998;9.116;2024-03-02T10:19:21;12.40;99.90
33328;DHT22;19692;52.998;9.116;2024-03-02T10:21:49;12.40;99.90
33328;DHT22;19692;52.998;9.116;2024-03-02T10:24:17;12.40;99.90
33328;DHT22;19692;52.998;9.116;2024-03-02T10:26:47;12.40;99.90
33328;DHT22;19692;52.998;9.116;2024-03-02T10:29:13;12.40;99.90
33328;DHT22;19692;52.998;9.116;2024-03-02T10:31:41;12.40;99.90
33328;DHT22;19692;52.998;9.116;2024-03-02T10:34:09;12.40;99.90
33328;DHT22;19692;52.998;9.116;2024-03-02T10:36:36;12.40;99.90
33328;DHT22;19692;52.998;9.116;2024-03-02T10:39:04;12.40;99.90
33328;DHT22;19692;52.998;9.116;2024-03-02T10:41:37;12.40;99.90
33328;DHT22;19692;52.998;9.116;2024-03-02T10:44:05;12.50;99.90
33328;DHT22;19692;52.998;9.116;2024-03-02T10:46:34;12.40;99.90
33328;DHT22;19692;52.998;9.116;2024-03-02T10:49:02;12.30;99.90
33328;DHT22;19692;52.998;9.116;2024-03-02T10:51:31;12.40;99.90
33328;DHT22;19692;52.998;9.116;2024-03-02T10:53:58;12.40;99.90
33328;DHT22;19692;52.998;9.116;2024-03-02T10:56:31;12.40;99.90
33328;DHT22;19692;52.998;9.116;2024-03-02T10:59:28;12.40;99.90
33328;DHT22;19692;52.998;9.116;2024-03-02T11:02:00;12.40;99.90
33328;DHT22;19692;52.998;9.116;2024-03-02T11:04:27;12.40;99.90
33328;DHT22;19692;52.998;9.116;2024-03-02T11:07:02;12.60;99.90
33328;DHT22;19692;52.998;9.116;2024-03-02T11:09:40;12.90;99.90
33328;DHT22;19692;52.998;9.116;2024-03-02T11:12:13;13.00;99.90
33328;DHT22;19692;52.998;9.116;2024-03-02T11:14:43;13.10;99.90
33328;DHT22;19692;52.998;9.116;2024-03-02T11:17:09;13.30;99.90
33328;DHT22;19692;52.998;9.116;2024-03-02T11:19:38;13.30;99.90
33328;DHT22;19692;52.998;9.116;2024-03-02T11:22:05;13.30;99.90
33328;DHT22;19692;52.998;9.116;2024-03-02T11:24:32;13.50;99.90
33328;DHT22;19692;52.998;9.116;2024-03-02T11:26:59;13.70;99.90
33328;DHT22;19692;52.998;9.116;2024-03-02T11:32:04;14.10;99.90
33328;DHT22;19692;52.998;9.116;2024-03-02T11:34:35;14.20;99.90
33328;DHT22;19692;52.998;9.116;2024-03-02T11:37:02;14.50;99.90
33328;DHT22;19692;52.998;9.116;2024-03-02T11:39:28;14.70;99.90
33328;DHT22;19692;52.998;9.116;2024-03-02T11:41:56;14.70;99.90
33328;DHT22;19692;52.998;9.116;2024-03-02T11:44:27;14.80;99.90
33328;DHT22;19692;52.998;9.116;2024-03-02T11:47:06;14.80;99.90
33328;DHT22;19692;52.998;9.116;2024-03-02T11:49:54;14.70;99.90
33328;DHT22;19692;52.998;9.116;2024-03-02T11:52:20;15.00;99.90
33328;DHT22;19692;52.998;9.116;2024-03-02T11:54:48;15.10;99.90
33328;DHT22;19692;52.998;9.116;2024-03-02T11:57:17;15.20;99.90
33328;DHT22;19692;52.998;9.116;2024-03-02T11:59:45;15.50;99.90
33328;DHT22;19692;52.998;9.116;2024-03-02T12:02:19;15.90;99.90
33328;DHT22;19692;52.998;9.116;2024-03-02T12:04:46;16.20;99.90
33328;DHT22;19692;52.998;9.116;2024-03-02T12:07:19;16.20;99.90
33328;DHT22;19692;52.998;9.116;2024-03-02T12:09:46;15.90;99.90
33328;DHT22;19692;52.998;9.116;2024-03-02T12:12:12;15.90;99.90
33328;DHT22;19692;52.998;9.116;2024-03-02T12:14:53;15.90;99.90
33328;DHT22;19692;52.998;9.116;2024-03-02T12:17:21;16.20;99.90
33328;DHT22;19692;52.998;9.116;2024-03-02T12:19:47;16.70;99.90
33328;DHT22;19692;52.998;9.116;2024-03-02T12:22:13;16.60;99.90
33328;DHT22;19692;52.998;9.116;2024-03-02T12:24:41;16.40;99.90
33328;DHT22;19692;52.998;9.116;2024-03-02T12:27:07;16.40;99.90
33328;DHT22;19692;52.998;9.116;2024-03-02T12:29:34;16.80;99.90
33328;DHT22;19692;52.998;9.116;2024-03-02T12:31:59;17.00;99.90
33328;DHT22;19692;52.998;9.116;2024-03-02T12:34:27;17.00;99.90
33328;DHT22;19692;52.998;9.116;2024-03-02T12:36:53;17.20;99.90
33328;DHT22;19692;52.998;9.116;2024-03-02T12:39:19;17.40;99.90
33328;DHT22;19692;52.998;9.116;2024-03-02T12:41:51;17.20;99.90
33328;DHT22;19692;52.998;9.116;2024-03-02T12:44:19;17.30;99.90
33328;DHT22;19692;52.998;9.116;2024-03-02T12:46:46;17.40;99.90
33328;DHT22;19692;52.998;9.116;2024-03-02T12:49:14;17.50;99.90
33328;DHT22;19692;52.998;9.116;2024-03-02T12:51:45;17.50;99.90
33328;DHT22;19692;52.998;9.116;2024-03-02T12:54:17;17.60;99.90
33328;DHT22;19692;52.998;9.116;2024-03-02T12:56:43;17.60;99.90
33328;DHT22;19692;52.998;9.116;2024-03-02T12:59:19;17.40;99.90
33328;DHT22;19692;52.998;9.116;2024-03-02T13:01:51;17.80;99.90
33328;DHT22;19692;52.998;9.116;2024-03-02T13:04:27;17.60;99.90
33328;DHT22;19692;52.998;9.116;2024-03-02T13:06:54;17.90;99.90
33328;DHT22;19692;52.998;9.116;2024-03-02T13:09:23;18.40;99.90
33328;DHT22;19692;52.998;9.116;2024-03-02T13:11:49;18.30;99.90
33328;DHT22;19692;52.998;9.116;2024-03-02T13:14:15;18.30;99.90
33328;DHT22;19692;52.998;9.116;2024-03-02T13:16:44;17.90;99.90
33328;DHT22;19692;52.998;9.116;2024-03-02T13:19:14;18.00;99.90
33328;DHT22;19692;52.998;9.116;2024-03-02T13:21:39;18.10;99.90
33328;DHT22;19692;52.998;9.116;2024-03-02T13:24:05;17.90;99.90
33328;DHT22;19692;52.998;9.116;2024-03-02T13:26:31;18.10;99.90
33328;DHT22;19692;52.998;9.116;2024-03-02T13:28:57;18.00;99.90
33328;DHT22;19692;52.998;9.116;2024-03-02T13:31:23;17.90;99.90
33328;DHT22;19692;52.998;9.116;2024-03-02T13:33:49;17.60;99.90
33328;DHT22;19692;52.998;9.116;2024-03-02T13:36:14;17.90;99.90
33328;DHT22;19692;52.998;9.116;2024-03-02T13:38:40;18.00;99.90
33328;DHT22;19692;52.998;9.116;2024-03-02T13:41:06;17.90;99.90
33328;DHT22;19692;52.998;9.116;2024-03-02T13:43:32;18.10;99.90
33328;DHT22;19692;52.998;9.116;2024-03-02T13:45:58;18.10;99.90
33328;DHT22;19692;52.998;9.116;2024-03-02T13:48:24;18.10;99.90
33328;DHT22;19692;52.998;9.116;2024-03-02T13:50:52;17.60;99.90
33328;DHT22;19692;52.998;9.116;2024-03-02T13:53:18;17.50;99.90
33328;DHT22;19692;52.998;9.116;2024-03-02T13:55:45;17.50;99.90
33328;DHT22;19692;52.998;9.116;2024-03-02T13:58:11;17.70;99.90
33328;DHT22;19692;52.998;9.116;2024-03-02T14:00:38;17.80;99.90
33328;DHT22;19692;52.998;9.116;2024-03-02T14:03:05;17.80;99.90
33328;DHT22;19692;52.998;9.116;2024-03-02T14:05:31;17.90;99.90
33328;DHT22;19692;52.998;9.116;2024-03-02T14:07:57;17.60;99.90
33328;DHT22;19692;52.998;9.116;2024-03-02T14:10:25;17.50;99.90
33328;DHT22;19692;52.998;9.116;2024-03-02T14:12:52;17.30;99.90
33328;DHT22;19692;52.998;9.116;2024-03-02T14:15:19;17.30;99.90
33328;DHT22;19692;52.998;9.116;2024-03-02T14:17:45;17.20;99.90
33328;DHT22;19692;52.998;9.116;2024-03-02T14:20:11;17.30;99.90
33328;DHT22;19692;52.998;9.116;2024-03-02T14:22:39;17.20;99.90
33328;DHT22;19692;52.998;9.116;2024-03-02T14:25:05;17.20;99.90
33328;DHT22;19692;52.998;9.116;2024-03-02T14:27:31;16.90;99.90
33328;DHT22;19692;52.998;9.116;2024-03-02T14:29:57;16.80;99.90
33328;DHT22;19692;52.998;9.116;2024-03-02T14:32:23;17.00;99.90
33328;DHT22;19692;52.998;9.116;2024-03-02T14:34:50;17.20;99.90
33328;DHT22;19692;52.998;9.116;2024-03-02T14:37:15;17.30;99.90
33328;DHT22;19692;52.998;9.116;2024-03-02T14:39:41;17.50;99.90
33328;DHT22;19692;52.998;9.116;2024-03-02T14:42:07;17.50;99.90
33328;DHT22;19692;52.998;9.116;2024-03-02T14:44:33;17.30;99.90
33328;DHT22;19692;52.998;9.116;2024-03-02T14:47:01;17.20;99.90
33328;DHT22;19692;52.998;9.116;2024-03-02T14:49:28;17.30;99.90
33328;DHT22;19692;52.998;9.116;2024-03-02T14:51:54;17.40;99.90
33328;DHT22;19692;52.998;9.116;2024-03-02T14:54:20;17.20;99.90
33328;DHT22;19692;52.998;9.116;2024-03-02T14:56:46;17.00;99.90
33328;DHT22;19692;52.998;9.116;2024-03-02T14:59:12;16.80;99.90
33328;DHT22;19692;52.998;9.116;2024-03-02T15:01:37;16.70;99.90
33328;DHT22;19692;52.998;9.116;2024-03-02T15:04:04;16.80;99.90
33328;DHT22;19692;52.998;9.116;2024-03-02T15:06:30;16.80;99.90
33328;DHT22;19692;52.998;9.116;2024-03-02T15:08:56;16.70;99.90
33328;DHT22;19692;52.998;9.116;2024-03-02T15:11:22;16.60;99.90
33328;DHT22;19692;52.998;9.116;2024-03-02T15:13:48;16.50;99.90
33328;DHT22;19692;52.998;9.116;2024-03-02T15:16:14;16.70;99.90
33328;DHT22;19692;52.998;9.116;2024-03-02T15:18:40;16.70;99.90
33328;DHT22;19692;52.998;9.116;2024-03-02T15:21:05;16.80;99.90
33328;DHT22;19692;52.998;9.116;2024-03-02T15:23:32;16.90;99.90
33328;DHT22;19692;52.998;9.116;2024-03-02T15:25:57;16.80;99.90
33328;DHT22;19692;52.998;9.116;2024-03-02T15:28:23;16.50;99.90
33328;DHT22;19692;52.998;9.116;2024-03-02T15:30:49;16.60;99.90
33328;DHT22;19692;52.998;9.116;2024-03-02T15:33:15;16.70;99.90
33328;DHT22;19692;52.998;9.116;2024-03-02T15:35:43;16.70;99.90
33328;DHT22;19692;52.998;9.116;2024-03-02T15:38:09;16.60;99.90
33328;DHT22;19692;52.998;9.116;2024-03-02T15:40:37;16.70;99.90
33328;DHT22;19692;52.998;9.116;2024-03-02T15:43:03;16.60;99.90
33328;DHT22;19692;52.998;9.116;2024-03-02T15:45:29;16.50;99.90